Time;durP1;ratioP1;P1;durP2;ratioP2;P2;SDS_P1;SDS_P2;PMS_P1;PMS_P2;Temp;Humidity;BMP_temperature;BMP_pressure;BME280_temperature;BME280_humidity;BME280_pressure;Samples;Min_cycle;Max_cycle;Signal;HPM_P1;HPM_P2
2023/06/08 00:00:22;;;;;;;6.07;3.55;;;;;;;;;;10471041;28;20039;-84
2023/06/08 00:05:23;;;;;;;17.95;4.43;;;;;;;;;;10472113;28;20118;-83
2023/06/08 00:10:23;;;;;;;8.20;4.68;;;;;;;;;;10469371;28;20094;-84
2023/06/08 00:15:23;;;;;;;7.05;3.90;;;;;;;;;;10468196;28;20016;-84
2023/06/08 00:20:25;;;;;;;10.55;3.70;;;;;;;;;;10466913;28;20024;-84
2023/06/08 00:25:25;;;;;;;10.40;4.18;;;;;;;;;;10467387;28;20537;-85
2023/06/08 00:30:26;;;;;;;7.72;4.68;;;;;;;;;;10467183;28;20081;-84
2023/06/08 00:35:26;;;;;;;10.30;4.05;;;;;;;;;;10466146;28;20603;-84
2023/06/08 00:40:27;;;;;;;13.27;4.50;;;;;;;;;;10467015;28;20029;-84
2023/06/08 00:45:27;;;;;;;7.22;4.00;;;;;;;;;;10468409;28;20024;-85
2023/06/08 00:50:28;;;;;;;8.67;4.27;;;;;;;;;;10445447;28;20338;-86
2023/06/08 00:55:33;;;;;;;9.35;4.07;;;;;;;;;;10468342;28;20314;-84
2023/06/08 01:00:33;;;;;;;5.47;3.88;;;;;;;;;;10464759;28;20048;-84
2023/06/08 01:05:34;;;;;;;12.70;4.72;;;;;;;;;;10466017;28;20018;-84
2023/06/08 01:10:38;;;;;;;8.02;4.22;;;;;;;;;;10466010;28;20032;-83
2023/06/08 01:15:41;;;;;;;8.27;4.05;;;;;;;;;;10465272;28;20077;-84
2023/06/08 01:20:53;;;;;;;6.93;3.70;;;;;;;;;;10465235;28;20210;-87
2023/06/08 01:25:57;;;;;;;7.55;3.72;;;;;;;;;;10426090;23;20084;-81
2023/06/08 01:30:58;;;;;;;10.73;4.05;;;;;;;;;;10362111;28;20455;-81
2023/06/08 01:36:07;;;;;;;4.65;3.20;;;;;;;;;;10364121;28;20431;-79
2023/06/08 01:41:11;;;;;;;8.93;3.83;;;;;;;;;;10377033;28;20055;-79
2023/06/08 01:46:12;;;;;;;8.02;3.97;;;;;;;;;;10364220;28;20037;-83
2023/06/08 01:51:13;;;;;;;6.90;3.72;;;;;;;;;;10372777;28;20034;-80
2023/06/08 01:56:13;;;;;;;4.97;4.00;;;;;;;;;;10359160;28;20022;-72
2023/06/08 02:01:14;;;;;;;5.60;3.80;;;;;;;;;;10362892;28;20100;-80
2023/06/08 02:06:14;;;;;;;8.52;4.05;;;;;;;;;;10372381;28;20022;-82
2023/06/08 02:11:14;;;;;;;6.32;4.10;;;;;;;;;;10369975;28;20112;-76
2023/06/08 02:16:18;;;;;;;7.43;4.30;;;;;;;;;;10366061;28;20086;-81
2023/06/08 02:21:23;;;;;;;5.75;4.68;;;;;;;;;;10364498;28;20026;-80
2023/06/08 02:26:24;;;;;;;7.93;3.75;;;;;;;;;;10365863;28;20371;-82
2023/06/08 02:31:26;;;;;;;6.80;4.00;;;;;;;;;;10367525;28;20084;-80
2023/06/08 02:36:33;;;;;;;12.02;5.15;;;;;;;;;;10355642;28;20137;-81
2023/06/08 02:41:35;;;;;;;8.82;5.57;;;;;;;;;;10378976;28;20029;-77
2023/06/08 02:46:36;;;;;;;8.90;4.53;;;;;;;;;;10377834;28;20050;-83
2023/06/08 02:51:36;;;;;;;7.88;3.85;;;;;;;;;;10383729;28;20096;-77
2023/06/08 02:56:38;;;;;;;10.07;5.80;;;;;;;;;;10351969;28;20022;-84
2023/06/08 03:01:52;;;;;;;9.18;4.90;;;;;;;;;;10362954;28;20500;-72
2023/06/08 03:06:53;;;;;;;7.32;4.78;;;;;;;;;;10366019;28;20099;-80
2023/06/08 03:11:59;;;;;;;9.48;4.82;;;;;;;;;;10381276;28;20021;-81
2023/06/08 03:17:02;;;;;;;16.35;5.60;;;;;;;;;;10356121;28;20022;-77
2023/06/08 03:22:04;;;;;;;11.18;5.28;;;;;;;;;;10375471;28;20399;-76
2023/06/08 03:27:07;;;;;;;6.85;4.78;;;;;;;;;;10374550;28;20410;-76
2023/06/08 03:32:08;;;;;;;10.88;5.13;;;;;;;;;;10391081;28;20049;-71
2023/06/08 03:42:35;;;;;;;9.88;5.22;;;;;;;;;;10390374;28;20030;-75
2023/06/08 03:47:36;;;;;;;18.63;6.40;;;;;;;;;;10386010;28;20025;-79
2023/06/08 03:52:36;;;;;;;13.55;5.43;;;;;;;;;;10387001;28;20033;-74
2023/06/08 03:57:40;;;;;;;8.93;4.47;;;;;;;;;;10370237;28;20390;-82
2023/06/08 04:02:40;;;;;;;7.97;4.85;;;;;;;;;;10364195;28;20300;-80
2023/06/08 04:07:51;;;;;;;6.43;4.82;;;;;;;;;;10365110;28;20513;-81
2023/06/08 04:12:52;;;;;;;6.28;3.80;;;;;;;;;;10345772;28;20545;-78
2023/06/08 04:17:52;;;;;;;7.50;3.57;;;;;;;;;;10351365;28;20045;-78
2023/06/08 04:22:52;;;;;;;6.07;4.40;;;;;;;;;;10359831;28;20080;-78
2023/06/08 04:27:53;;;;;;;7.22;3.58;;;;;;;;;;10358450;28;20332;-77
2023/06/08 04:32:53;;;;;;;14.05;4.05;;;;;;;;;;10362169;28;20033;-79
2023/06/08 04:37:53;;;;;;;11.17;4.43;;;;;;;;;;10356365;28;20505;-77
2023/06/08 04:42:54;;;;;;;10.93;5.72;;;;;;;;;;10360564;28;20382;-84
2023/06/08 04:47:57;;;;;;;8.00;4.15;;;;;;;;;;10357726;28;20417;-80
2023/06/08 04:52:58;;;;;;;6.95;3.67;;;;;;;;;;10359952;28;20316;-77
2023/06/08 04:57:58;;;;;;;8.30;3.90;;;;;;;;;;10357907;28;20029;-79
2023/06/08 05:02:59;;;;;;;11.00;5.03;;;;;;;;;;10353802;28;20026;-76
2023/06/08 05:07:59;;;;;;;13.48;4.28;;;;;;;;;;10357824;28;20493;-76
2023/06/08 05:12:59;;;;;;;9.90;4.07;;;;;;;;;;10359779;28;20034;-78
2023/06/08 05:17:59;;;;;;;13.83;4.43;;;;;;;;;;10358570;28;20394;-83
2023/06/08 05:23:00;;;;;;;8.45;3.42;;;;;;;;;;10362018;28;20664;-82
2023/06/08 05:28:00;;;;;;;7.73;3.67;;;;;;;;;;10322460;28;20050;-72
2023/06/08 05:33:01;;;;;;;8.52;3.97;;;;;;;;;;10330983;28;20108;-72
2023/06/08 05:38:02;;;;;;;11.30;4.30;;;;;;;;;;10336153;28;20105;-76
2023/06/08 05:43:02;;;;;;;13.15;3.65;;;;;;;;;;10357096;28;20030;-77
2023/06/08 05:48:02;;;;;;;17.13;4.00;;;;;;;;;;10355306;28;20348;-80
2023/06/08 05:53:03;;;;;;;10.10;3.47;;;;;;;;;;10360364;28;20033;-80
2023/06/08 05:58:03;;;;;;;11.30;3.72;;;;;;;;;;10356814;28;20022;-77
2023/06/08 06:03:03;;;;;;;8.75;3.35;;;;;;;;;;10356436;28;20486;-76
2023/06/08 06:08:04;;;;;;;8.40;3.63;;;;;;;;;;10357270;28;20026;-80
2023/06/08 06:13:04;;;;;;;9.70;4.50;;;;;;;;;;10364437;28;20125;-77
2023/06/08 06:18:04;;;;;;;21.73;5.00;;;;;;;;;;10365135;28;20049;-75
2023/06/08 06:23:05;;;;;;;9.85;4.20;;;;;;;;;;10371956;28;20038;-76
2023/06/08 06:28:05;;;;;;;10.07;2.95;;;;;;;;;;10368200;28;20056;-77
2023/06/08 06:33:06;;;;;;;8.02;2.72;;;;;;;;;;10367513;28;20045;-78
2023/06/08 06:38:07;;;;;;;6.03;3.23;;;;;;;;;;10368466;28;20125;-78
2023/06/08 06:43:08;;;;;;;7.50;3.22;;;;;;;;;;10364906;28;20029;-76
2023/06/08 06:48:08;;;;;;;5.47;2.70;;;;;;;;;;10347381;28;20025;-76
2023/06/08 06:53:08;;;;;;;9.68;2.83;;;;;;;;;;10364333;28;20026;-78
2023/06/08 06:58:10;;;;;;;6.63;3.45;;;;;;;;;;10363160;28;20119;-74
2023/06/08 07:03:11;;;;;;;13.80;5.22;;;;;;;;;;10358151;28;20018;-81
2023/06/08 07:08:11;;;;;;;11.18;2.65;;;;;;;;;;10329431;28;20030;-75
2023/06/08 07:13:12;;;;;;;8.13;2.63;;;;;;;;;;10360767;28;20046;-73
2023/06/08 07:18:12;;;;;;;7.60;2.70;;;;;;;;;;10358378;28;20014;-77
2023/06/08 07:23:12;;;;;;;7.60;2.60;;;;;;;;;;10358324;28;20429;-79
2023/06/08 07:28:13;;;;;;;9.93;2.47;;;;;;;;;;10357565;28;20049;-76
2023/06/08 07:33:13;;;;;;;4.60;2.22;;;;;;;;;;10361207;28;20405;-74
2023/06/08 07:38:14;;;;;;;4.00;2.37;;;;;;;;;;10360482;28;20074;-73
2023/06/08 07:43:14;;;;;;;7.97;2.63;;;;;;;;;;10360212;28;20050;-77
2023/06/08 07:48:15;;;;;;;9.03;2.30;;;;;;;;;;10360769;28;20025;-73
2023/06/08 07:53:15;;;;;;;4.78;2.13;;;;;;;;;;10360360;28;20026;-78
2023/06/08 07:58:16;;;;;;;5.97;2.03;;;;;;;;;;10360618;28;20091;-73
2023/06/08 08:03:16;;;;;;;4.90;2.25;;;;;;;;;;10357827;28;20030;-77
2023/06/08 08:08:16;;;;;;;12.35;2.28;;;;;;;;;;10359230;28;20014;-72
2023/06/08 08:13:17;;;;;;;4.88;2.22;;;;;;;;;;10357237;28;20512;-73
2023/06/08 08:18:17;;;;;;;4.22;2.30;;;;;;;;;;10356045;28;20018;-77
2023/06/08 08:23:18;;;;;;;6.35;2.60;;;;;;;;;;10359185;28;20096;-74
2023/06/08 08:28:18;;;;;;;5.05;2.65;;;;;;;;;;10358818;28;20054;-77
2023/06/08 08:33:19;;;;;;;7.13;1.80;;;;;;;;;;10360760;28;20117;-76
2023/06/08 08:38:19;;;;;;;3.05;2.20;;;;;;;;;;10360025;28;20026;-72
2023/06/08 08:43:26;;;;;;;5.75;2.53;;;;;;;;;;10358703;28;20033;-77
2023/06/08 08:48:27;;;;;;;6.30;2.60;;;;;;;;;;10358745;28;20022;-77
2023/06/08 08:53:30;;;;;;;8.73;2.20;;;;;;;;;;10357892;28;20021;-73
2023/06/08 08:58:30;;;;;;;32.08;3.58;;;;;;;;;;10357630;28;20064;-73
2023/06/08 09:03:30;;;;;;;4.77;2.40;;;;;;;;;;10353985;28;20022;-73
2023/06/08 09:08:31;;;;;;;5.63;2.47;;;;;;;;;;10353245;28;20025;-74
2023/06/08 09:13:31;;;;;;;4.07;2.03;;;;;;;;;;10355630;28;20041;-75
2023/06/08 09:18:32;;;;;;;3.92;2.05;;;;;;;;;;10344401;28;20105;-76
2023/06/08 09:23:32;;;;;;;3.60;2.17;;;;;;;;;;10357057;28;20568;-77
2023/06/08 09:28:34;;;;;;;7.13;2.33;;;;;;;;;;10358768;28;20022;-75
2023/06/08 09:33:35;;;;;;;6.10;2.28;;;;;;;;;;10358920;28;20668;-79
2023/06/08 09:38:35;;;;;;;6.45;2.30;;;;;;;;;;10357512;28;20056;-76
2023/06/08 09:43:35;;;;;;;4.60;2.17;;;;;;;;;;10356177;28;20095;-73
2023/06/08 09:48:37;;;;;;;9.68;2.78;;;;;;;;;;10355317;28;20116;-74
2023/06/08 09:53:39;;;;;;;5.88;2.05;;;;;;;;;;10358105;28;20390;-77
2023/06/08 09:58:41;;;;;;;6.80;2.03;;;;;;;;;;10357485;28;20026;-73
2023/06/08 10:03:47;;;;;;;3.00;1.75;;;;;;;;;;10356227;28;20494;-72
2023/06/08 10:08:51;;;;;;;6.65;1.80;;;;;;;;;;10356298;28;20506;-73
2023/06/08 10:13:52;;;;;;;3.83;1.67;;;;;;;;;;10356485;28;20095;-73
2023/06/08 10:18:53;;;;;;;3.03;1.75;;;;;;;;;;10357882;28;20022;-80
2023/06/08 10:23:54;;;;;;;4.00;1.70;;;;;;;;;;10357567;28;20057;-81
2023/06/08 10:29:07;;;;;;;3.72;1.55;;;;;;;;;;10356740;28;20648;-79
2023/06/08 10:34:12;;;;;;;7.70;2.40;;;;;;;;;;10361035;28;20402;-80
2023/06/08 10:39:14;;;;;;;3.08;1.95;;;;;;;;;;10356497;28;20030;-76
2023/06/08 10:44:35;;;;;;;2.90;1.95;;;;;;;;;;10363828;28;20022;-80
2023/06/08 10:49:43;;;;;;;4.93;1.58;;;;;;;;;;10342831;28;20058;-74
2023/06/08 10:54:52;;;;;;;4.85;1.60;;;;;;;;;;10346825;28;20029;-77
2023/06/08 10:59:54;;;;;;;3.45;1.75;;;;;;;;;;10375330;28;20134;-76
2023/06/08 11:04:56;;;;;;;3.05;1.50;;;;;;;;;;10361914;28;20404;-76
2023/06/08 11:09:56;;;;;;;4.25;1.80;;;;;;;;;;10362064;28;20482;-76
2023/06/08 11:14:56;;;;;;;6.00;2.00;;;;;;;;;;10362107;28;20036;-76
2023/06/08 11:20:01;;;;;;;6.60;2.80;;;;;;;;;;10363049;28;20048;-79
2023/06/08 11:25:01;;;;;;;4.50;1.75;;;;;;;;;;10362795;28;20129;-81
2023/06/08 11:30:01;;;;;;;4.27;2.27;;;;;;;;;;10361757;28;20539;-75
2023/06/08 11:35:05;;;;;;;6.10;2.27;;;;;;;;;;10363620;28;20113;-76
2023/06/08 11:40:09;;;;;;;2.65;1.80;;;;;;;;;;10360918;28;20453;-76
2023/06/08 11:45:10;;;;;;;5.82;2.55;;;;;;;;;;10361368;28;20022;-80
2023/06/08 11:50:11;;;;;;;2.53;1.70;;;;;;;;;;10360820;28;20063;-74
2023/06/08 11:55:32;;;;;;;2.13;1.45;;;;;;;;;;10361622;28;20458;-80
2023/06/08 12:00:32;;;;;;;2.45;1.77;;;;;;;;;;10360221;28;20017;-76
2023/06/08 12:05:33;;;;;;;12.02;2.15;;;;;;;;;;10368237;28;20083;-77
2023/06/08 12:10:42;;;;;;;3.58;1.85;;;;;;;;;;10361255;28;20034;-81
2023/06/08 12:15:46;;;;;;;3.05;1.80;;;;;;;;;;10361273;28;20022;-81
2023/06/08 12:20:51;;;;;;;6.93;2.15;;;;;;;;;;10362252;28;20022;-75
2023/06/08 12:25:51;;;;;;;7.55;2.78;;;;;;;;;;10362467;28;20062;-81
2023/06/08 12:30:57;;;;;;;5.13;2.00;;;;;;;;;;10364267;28;20034;-80
2023/06/08 12:35:59;;;;;;;5.70;2.45;;;;;;;;;;10364260;28;20022;-81
2023/06/08 12:40:59;;;;;;;4.82;2.83;;;;;;;;;;10359926;28;20029;-77
2023/06/08 12:46:01;;;;;;;4.90;2.42;;;;;;;;;;10341975;28;20018;-77
2023/06/08 12:51:01;;;;;;;7.00;2.72;;;;;;;;;;10353695;28;20415;-77
2023/06/08 12:56:11;;;;;;;6.10;2.40;;;;;;;;;;10333628;28;20442;-79
2023/06/08 13:01:11;;;;;;;4.38;2.20;;;;;;;;;;10348679;28;20033;-77
2023/06/08 13:06:11;;;;;;;4.57;2.60;;;;;;;;;;10353484;28;20028;-79
2023/06/08 13:11:13;;;;;;;6.75;3.22;;;;;;;;;;10343399;28;20032;-76
2023/06/08 13:16:15;;;;;;;5.68;3.05;;;;;;;;;;10359918;28;20024;-84
2023/06/08 13:21:16;;;;;;;5.28;2.78;;;;;;;;;;10332189;28;20438;-80
2023/06/08 13:26:17;;;;;;;3.22;2.58;;;;;;;;;;10357854;28;20054;-81
2023/06/08 13:31:17;;;;;;;6.10;2.80;;;;;;;;;;10344818;28;20036;-76
2023/06/08 13:36:18;;;;;;;3.67;2.20;;;;;;;;;;10360348;28;20269;-82
2023/06/08 13:41:19;;;;;;;5.95;2.35;;;;;;;;;;10359486;28;20022;-83
2023/06/08 13:46:19;;;;;;;3.60;3.00;;;;;;;;;;10360241;28;20079;-74
2023/06/08 13:51:20;;;;;;;7.50;2.93;;;;;;;;;;10359083;28;20152;-78
2023/06/08 13:56:22;;;;;;;5.07;2.75;;;;;;;;;;10357433;28;20511;-82
2023/06/08 14:01:22;;;;;;;9.10;3.10;;;;;;;;;;10340875;28;20417;-83
2023/06/08 14:06:23;;;;;;;5.53;2.50;;;;;;;;;;10356237;28;20033;-81
2023/06/08 14:11:23;;;;;;;6.68;2.70;;;;;;;;;;10358684;28;20030;-80
2023/06/08 14:16:25;;;;;;;7.53;3.10;;;;;;;;;;10359469;28;20028;-79
2023/06/08 14:21:25;;;;;;;16.73;2.65;;;;;;;;;;10357210;28;20087;-75
2023/06/08 14:26:28;;;;;;;4.65;2.88;;;;;;;;;;10357418;28;20099;-82
2023/06/08 14:31:29;;;;;;;9.77;3.50;;;;;;;;;;10359203;28;20038;-81
2023/06/08 14:36:29;;;;;;;4.80;2.55;;;;;;;;;;10363582;28;20022;-76
2023/06/08 14:41:29;;;;;;;9.80;3.30;;;;;;;;;;10366276;28;20068;-80
2023/06/08 14:46:33;;;;;;;6.03;3.17;;;;;;;;;;10366710;28;20022;-76
2023/06/08 14:51:33;;;;;;;10.35;2.75;;;;;;;;;;10367337;28;20030;-80
2023/06/08 14:56:35;;;;;;;7.00;3.25;;;;;;;;;;10376577;28;20025;-77
2023/06/08 15:01:35;;;;;;;5.70;3.05;;;;;;;;;;10363755;28;20493;-81
2023/06/08 15:06:36;;;;;;;5.83;2.83;;;;;;;;;;10366699;28;20564;-77
2023/06/08 15:11:36;;;;;;;6.40;3.30;;;;;;;;;;10363258;28;20279;-80
2023/06/08 15:16:36;;;;;;;12.50;3.72;;;;;;;;;;10366296;28;20360;-78
2023/06/08 15:21:37;;;;;;;6.70;3.05;;;;;;;;;;10362691;28;20125;-78
2023/06/08 15:26:37;;;;;;;8.13;3.28;;;;;;;;;;10364967;28;20552;-74
2023/06/08 15:31:39;;;;;;;3.57;2.70;;;;;;;;;;10366591;28;20030;-81
2023/06/08 15:36:39;;;;;;;7.85;3.67;;;;;;;;;;10365106;28;20026;-80
2023/06/08 15:41:40;;;;;;;6.85;3.83;;;;;;;;;;10361666;28;20022;-74
2023/06/08 15:46:41;;;;;;;14.97;3.63;;;;;;;;;;10362048;28;20021;-73
2023/06/08 15:51:43;;;;;;;8.93;3.63;;;;;;;;;;10360167;28;20132;-78
2023/06/08 15:56:43;;;;;;;10.23;4.05;;;;;;;;;;10360454;28;20034;-76
2023/06/08 16:01:43;;;;;;;5.15;3.28;;;;;;;;;;10361520;28;20022;-79
2023/06/08 16:06:44;;;;;;;6.13;2.90;;;;;;;;;;10344478;28;20519;-78
2023/06/08 16:11:45;;;;;;;9.00;3.80;;;;;;;;;;10345026;28;20038;-77
2023/06/08 16:16:45;;;;;;;7.82;3.25;;;;;;;;;;10361772;28;20013;-76
2023/06/08 16:21:46;;;;;;;9.60;3.70;;;;;;;;;;10360574;28;20029;-81
2023/06/08 16:26:46;;;;;;;6.97;2.63;;;;;;;;;;10361140;28;20054;-77
2023/06/08 16:31:50;;;;;;;7.23;3.70;;;;;;;;;;10356360;28;20580;-81
2023/06/08 16:36:50;;;;;;;9.23;4.13;;;;;;;;;;10359441;28;20620;-75
2023/06/08 16:41:51;;;;;;;8.43;3.30;;;;;;;;;;10357732;28;20045;-78
2023/06/08 16:46:54;;;;;;;7.85;3.63;;;;;;;;;;10323061;28;20033;-77
2023/06/08 16:51:54;;;;;;;8.07;3.53;;;;;;;;;;10359290;28;20033;-80
2023/06/08 16:56:55;;;;;;;10.43;3.83;;;;;;;;;;10363019;28;20034;-77
2023/06/08 17:01:55;;;;;;;11.70;4.53;;;;;;;;;;10358070;28;20072;-76
2023/06/08 17:06:56;;;;;;;6.63;2.70;;;;;;;;;;10356968;28;20489;-81
2023/06/08 17:11:56;;;;;;;8.40;3.45;;;;;;;;;;10367656;28;20451;-78
2023/06/08 17:16:58;;;;;;;6.37;3.97;;;;;;;;;;10353275;28;20095;-77
2023/06/08 17:21:58;;;;;;;9.10;4.60;;;;;;;;;;10355038;28;20017;-75
2023/06/08 17:26:59;;;;;;;7.13;3.83;;;;;;;;;;10357324;28;20058;-76
2023/06/08 17:31:59;;;;;;;5.82;3.42;;;;;;;;;;10360495;28;20127;-79
2023/06/08 17:36:59;;;;;;;4.65;3.72;;;;;;;;;;10360749;28;20018;-81
2023/06/08 17:42:00;;;;;;;5.47;3.38;;;;;;;;;;10353879;28;20022;-80
2023/06/08 17:47:02;;;;;;;10.77;4.30;;;;;;;;;;10361714;28;20093;-75
2023/06/08 17:52:03;;;;;;;8.50;3.78;;;;;;;;;;10355595;28;20034;-82
2023/06/08 17:57:03;;;;;;;9.93;3.90;;;;;;;;;;10347583;28;20552;-81
2023/06/08 18:02:03;;;;;;;13.40;4.10;;;;;;;;;;10345873;28;20292;-77
2023/06/08 18:07:04;;;;;;;5.80;4.50;;;;;;;;;;10351521;28;20323;-75
2023/06/08 18:12:05;;;;;;;13.00;5.22;;;;;;;;;;10357019;28;20285;-81
2023/06/08 18:17:06;;;;;;;8.68;4.20;;;;;;;;;;10354003;28;20029;-76
2023/06/08 18:22:07;;;;;;;10.07;4.32;;;;;;;;;;10356380;28;20088;-80
2023/06/08 18:27:13;;;;;;;10.00;4.43;;;;;;;;;;10368698;28;20057;-77
2023/06/08 18:32:14;;;;;;;6.68;4.05;;;;;;;;;;10364857;28;20727;-77
2023/06/08 18:37:16;;;;;;;7.63;4.05;;;;;;;;;;10352797;28;20030;-81
2023/06/08 18:42:16;;;;;;;9.82;4.55;;;;;;;;;;10340535;28;20038;-77
2023/06/08 18:47:16;;;;;;;15.70;4.68;;;;;;;;;;10340591;28;20017;-78
2023/06/08 18:52:17;;;;;;;13.93;4.60;;;;;;;;;;10358300;28;20034;-80
2023/06/08 18:57:17;;;;;;;7.70;4.57;;;;;;;;;;10353835;28;20121;-77
2023/06/08 19:02:19;;;;;;;7.23;4.47;;;;;;;;;;10361797;28;20033;-82
2023/06/08 19:07:23;;;;;;;9.75;4.22;;;;;;;;;;10362950;28;20014;-81
2023/06/08 19:12:24;;;;;;;12.55;5.25;;;;;;;;;;10358372;28;20038;-80
2023/06/08 19:17:26;;;;;;;11.15;5.95;;;;;;;;;;10352553;28;20157;-75
2023/06/08 19:22:26;;;;;;;10.87;5.27;;;;;;;;;;10353572;28;20428;-79
2023/06/08 19:27:27;;;;;;;12.63;5.75;;;;;;;;;;10358077;28;20114;-82
2023/06/08 19:32:28;;;;;;;12.13;5.70;;;;;;;;;;10363656;28;20022;-80
2023/06/08 19:37:29;;;;;;;10.30;5.20;;;;;;;;;;10363337;28;20029;-77
2023/06/08 19:42:30;;;;;;;15.15;5.10;;;;;;;;;;10362755;28;20045;-75
2023/06/08 19:47:31;;;;;;;9.40;4.57;;;;;;;;;;10355788;28;20333;-80
2023/06/08 19:52:31;;;;;;;12.32;5.13;;;;;;;;;;10361277;28;20026;-80
2023/06/08 19:57:31;;;;;;;11.63;4.90;;;;;;;;;;10361190;28;20025;-81
2023/06/08 20:02:33;;;;;;;11.85;5.03;;;;;;;;;;10360821;28;20535;-78
2023/06/08 20:07:34;;;;;;;14.02;5.50;;;;;;;;;;10357918;28;20520;-81
2023/06/08 20:12:35;;;;;;;10.48;5.07;;;;;;;;;;10335213;28;20029;-77
2023/06/08 20:17:35;;;;;;;7.53;5.22;;;;;;;;;;10350926;28;20049;-77
2023/06/08 20:22:35;;;;;;;12.65;5.03;;;;;;;;;;10356400;28;20029;-80
2023/06/08 20:27:35;;;;;;;12.27;4.90;;;;;;;;;;10359949;28;20065;-75
2023/06/08 20:32:36;;;;;;;9.67;5.23;;;;;;;;;;10362312;28;20026;-81
2023/06/08 20:37:36;;;;;;;10.63;6.05;;;;;;;;;;10376570;28;20061;-76
2023/06/08 20:42:36;;;;;;;15.77;5.95;;;;;;;;;;10372381;28;20561;-84
2023/06/08 20:47:37;;;;;;;11.95;5.28;;;;;;;;;;10361825;28;20025;-77
2023/06/08 20:52:37;;;;;;;10.68;5.00;;;;;;;;;;10359517;28;20049;-77
2023/06/08 20:57:37;;;;;;;5.37;4.00;;;;;;;;;;10359387;28;20018;-79
2023/06/08 21:02:47;;;;;;;10.77;5.00;;;;;;;;;;10359774;28;20084;-79
2023/06/08 21:07:48;;;;;;;8.60;5.05;;;;;;;;;;10358429;28;20288;-79
2023/06/08 21:12:48;;;;;;;11.23;4.70;;;;;;;;;;10359177;28;20026;-80
2023/06/08 21:17:49;;;;;;;7.57;3.55;;;;;;;;;;10350384;28;20026;-79
2023/06/08 21:22:50;;;;;;;10.73;4.57;;;;;;;;;;10363928;28;20134;-85
2023/06/08 21:27:52;;;;;;;9.50;3.55;;;;;;;;;;10359545;28;20050;-81
2023/06/08 21:32:52;;;;;;;8.18;3.08;;;;;;;;;;10359137;28;20018;-79
2023/06/08 21:37:52;;;;;;;6.45;3.72;;;;;;;;;;10357109;28;20018;-78
2023/06/08 21:42:53;;;;;;;9.82;3.40;;;;;;;;;;10357099;28;20032;-76
2023/06/08 21:47:53;;;;;;;7.10;3.40;;;;;;;;;;10363070;28;20026;-79
2023/06/08 21:52:53;;;;;;;5.55;3.47;;;;;;;;;;10358427;28;20025;-77
2023/06/08 21:57:54;;;;;;;7.50;3.45;;;;;;;;;;10363013;28;20029;-77
2023/06/08 22:02:58;;;;;;;6.15;3.20;;;;;;;;;;10363837;28;20022;-78
2023/06/08 22:08:01;;;;;;;9.48;4.05;;;;;;;;;;10363896;28;20030;-80
2023/06/08 22:13:02;;;;;;;6.68;3.47;;;;;;;;;;10356834;28;20115;-79
2023/06/08 22:18:02;;;;;;;8.48;3.53;;;;;;;;;;10360172;28;20621;-80
2023/06/08 22:23:05;;;;;;;9.07;3.87;;;;;;;;;;10357366;28;20064;-81
2023/06/08 22:28:06;;;;;;;6.78;3.72;;;;;;;;;;10361635;28;20300;-82
2023/06/08 22:33:06;;;;;;;10.45;3.60;;;;;;;;;;10358121;28;20026;-78
2023/06/08 22:38:08;;;;;;;10.70;3.70;;;;;;;;;;10344250;28;20383;-83
2023/06/08 22:43:08;;;;;;;4.18;2.97;;;;;;;;;;10361491;28;20030;-78
2023/06/08 22:48:08;;;;;;;5.30;3.40;;;;;;;;;;10355905;28;20030;-78
2023/06/08 22:53:16;;;;;;;8.82;3.88;;;;;;;;;;10362927;28;20030;-81
2023/06/08 22:58:23;;;;;;;5.37;3.53;;;;;;;;;;10367665;28;20025;-80
2023/06/08 23:03:24;;;;;;;;;;;;;;;;;;10367228;28;20288;-78
2023/06/08 23:08:27;;;;;;;8.98;3.53;;;;;;;;;;10362912;28;20324;-76
2023/06/08 23:13:28;;;;;;;8.45;3.83;;;;;;;;;;10365157;28;20568;-78
2023/06/08 23:18:31;;;;;;;7.22;3.17;;;;;;;;;;10365378;28;20025;-78
2023/06/08 23:23:32;;;;;;;7.18;3.22;;;;;;;;;;10363133;28;20492;-78
2023/06/08 23:28:36;;;;;;;10.40;3.80;;;;;;;;;;10362869;28;20587;-76
2023/06/08 23:33:37;;;;;;;8.32;3.70;;;;;;;;;;10386303;28;20029;-76
2023/06/08 23:38:37;;;;;;;7.85;3.35;;;;;;;;;;10362306;28;20033;-78
2023/06/08 23:43:38;;;;;;;6.43;3.17;;;;;;;;;;10365094;28;20037;-80
2023/06/08 23:48:39;;;;;;;10.30;3.58;;;;;;;;;;10346212;28;20026;-81
2023/06/08 23:53:40;;;;;;;10.85;3.58;;;;;;;;;;10364342;28;20026;-80
2023/06/08 23:58:41;;;;;;;6.10;3.28;;;;;;;;;;10363549;28;20025;-79
